createdAt,value
2023-05-23T00:02:29.366Z,11.30
2023-05-23T00:04:58.570Z,10.67
2023-05-23T00:07:28.566Z,11.70
2023-05-23T00:09:56.848Z,12.33
2023-05-23T00:12:25.317Z,11.57
2023-05-23T00:14:54.123Z,10.83
2023-05-23T00:17:25.411Z,11.70
2023-05-23T00:19:56.069Z,12.07
2023-05-23T00:22:24.422Z,10.80
2023-05-23T00:24:54.316Z,11.20
2023-05-23T00:27:22.486Z,12.13
2023-05-23T00:29:50.780Z,11.20
2023-05-23T00:32:19.108Z,11.53
2023-05-23T00:34:47.395Z,12.47
2023-05-23T00:37:16.490Z,12.10
2023-05-23T00:39:44.641Z,12.00
2023-05-23T00:42:14.569Z,11.77
2023-05-23T00:44:42.870Z,11.80
2023-05-23T00:47:13.790Z,11.93
2023-05-23T00:49:42.457Z,12.30
2023-05-23T00:52:11.541Z,11.23
2023-05-23T00:54:41.070Z,11.90
2023-05-23T00:57:11.358Z,12.13
2023-05-23T00:59:41.642Z,12.50
2023-05-23T01:02:10.666Z,11.37
2023-05-23T01:04:40.072Z,12.10
2023-05-23T01:07:08.276Z,12.80
2023-05-23T01:09:36.687Z,12.90
2023-05-23T01:12:16.270Z,13.90
2023-05-23T01:14:52.792Z,11.87
2023-05-23T01:17:28.188Z,12.63
2023-05-23T01:20:01.679Z,12.77
2023-05-23T01:22:42.794Z,11.83
2023-05-23T01:25:29.253Z,12.93
2023-05-23T01:28:03.248Z,12.50
2023-05-23T01:30:34.053Z,13.67
2023-05-23T01:33:03.434Z,11.97
2023-05-23T01:35:32.957Z,12.53
2023-05-23T01:38:01.285Z,11.90
2023-05-23T01:40:30.614Z,12.27
2023-05-23T01:43:00.371Z,13.43
2023-05-23T01:45:30.850Z,11.90
2023-05-23T01:48:00.258Z,12.50
2023-05-23T01:50:29.857Z,12.80
2023-05-23T01:52:58.630Z,12.10
2023-05-23T01:55:27.911Z,13.53
2023-05-23T01:57:57.902Z,12.97
2023-05-23T02:00:27.715Z,13.20
2023-05-23T02:02:55.988Z,14.17
2023-05-23T02:05:24.799Z,13.30
2023-05-23T02:07:53.354Z,13.10
2023-05-23T02:10:21.937Z,11.50
2023-05-23T02:12:50.353Z,13.37
2023-05-23T02:15:18.881Z,11.70
2023-05-23T02:17:49.699Z,13.33
2023-05-23T02:20:18.996Z,12.87
2023-05-23T02:22:49.814Z,12.80
2023-05-23T02:25:18.066Z,12.93
2023-05-23T02:27:46.268Z,13.50
2023-05-23T02:30:15.281Z,13.10
2023-05-23T02:32:43.840Z,13.17
2023-05-23T02:35:13.844Z,14.60
2023-05-23T02:37:42.644Z,13.70
2023-05-23T02:40:11.705Z,13.77
2023-05-23T02:42:39.909Z,13.70
2023-05-23T02:45:09.903Z,15.67
2023-05-23T02:47:38.901Z,14.60
2023-05-23T02:50:08.355Z,14.93
2023-05-23T02:52:38.290Z,13.70
2023-05-23T02:55:07.481Z,15.80
2023-05-23T02:57:41.422Z,13.37
2023-05-23T03:00:12.440Z,13.80
2023-05-23T03:02:42.984Z,14.40
2023-05-23T03:05:11.258Z,15.23
2023-05-23T03:07:40.919Z,15.63
2023-05-23T03:10:10.725Z,14.87
2023-05-23T03:12:39.853Z,13.73
2023-05-23T03:15:09.941Z,14.30
2023-05-23T03:17:41.287Z,14.43
2023-05-23T03:20:10.340Z,14.40
2023-05-23T03:22:43.724Z,13.23
2023-05-23T03:25:12.109Z,14.13
2023-05-23T03:27:40.281Z,14.23
2023-05-23T03:30:09.870Z,14.63
2023-05-23T03:32:38.382Z,14.30
2023-05-23T03:35:07.872Z,14.90
2023-05-23T03:37:36.178Z,16.13
2023-05-23T03:40:07.342Z,16.80
2023-05-23T03:42:37.970Z,16.57
2023-05-23T03:45:08.093Z,16.90
2023-05-23T03:47:36.415Z,17.47
2023-05-23T03:50:05.212Z,16.70
2023-05-23T03:52:34.573Z,16.57
2023-05-23T03:55:03.655Z,18.23
2023-05-23T03:57:33.604Z,18.93
2023-05-23T04:00:01.806Z,18.33
2023-05-23T04:02:33.042Z,18.27
2023-05-23T04:05:01.674Z,18.40
2023-05-23T04:07:30.491Z,16.90
2023-05-23T04:09:58.645Z,19.93
2023-05-23T04:12:27.155Z,18.90
2023-05-23T04:14:58.040Z,17.67
2023-05-23T04:17:29.645Z,18.00
2023-05-23T04:19:58.394Z,18.10
2023-05-23T04:22:26.891Z,18.03
2023-05-23T04:24:55.239Z,18.63
2023-05-23T04:27:26.413Z,17.23
2023-05-23T04:29:58.476Z,18.30
2023-05-23T04:32:26.851Z,18.57
2023-05-23T04:34:56.795Z,19.97
2023-05-23T04:37:26.527Z,18.13
2023-05-23T04:39:55.866Z,18.00
2023-05-23T04:42:44.704Z,18.57
2023-05-23T04:45:41.603Z,21.77
2023-05-23T04:48:27.649Z,21.17
2023-05-23T04:51:02.236Z,20.77
2023-05-23T04:53:31.382Z,19.90
2023-05-23T04:56:00.360Z,18.80
2023-05-23T04:58:29.182Z,20.00
2023-05-23T05:01:04.695Z,20.00
2023-05-23T05:03:33.707Z,24.10
2023-05-23T05:06:02.154Z,24.03
2023-05-23T05:08:30.330Z,24.30
2023-05-23T05:10:59.122Z,25.70
2023-05-23T05:13:27.600Z,25.57
2023-05-23T05:15:57.476Z,23.60
2023-05-23T05:18:29.287Z,24.43
2023-05-23T05:20:59.608Z,25.73
2023-05-23T05:23:29.539Z,24.13
2023-05-23T05:25:58.916Z,24.10
2023-05-23T05:28:27.098Z,24.10
2023-05-23T05:30:55.542Z,23.83
2023-05-23T05:33:25.233Z,24.17
2023-05-23T05:36:09.901Z,23.80
2023-05-23T05:38:38.133Z,25.50
2023-05-23T05:41:08.951Z,26.17
2023-05-23T05:43:41.234Z,25.90
2023-05-23T05:46:10.285Z,26.30
2023-05-23T05:48:38.979Z,24.40
2023-05-23T05:51:11.655Z,24.83
2023-05-23T05:53:41.370Z,26.73
2023-05-23T05:56:10.076Z,25.40
2023-05-23T05:58:40.277Z,26.10
2023-05-23T06:01:10.352Z,28.40
2023-05-23T06:03:39.096Z,28.30
2023-05-23T06:06:09.011Z,28.63
2023-05-23T06:08:40.995Z,28.77
2023-05-23T06:11:13.214Z,30.37
2023-05-23T06:13:41.644Z,34.07
2023-05-23T06:16:10.023Z,31.23
2023-05-23T06:18:38.548Z,32.30
2023-05-23T06:21:07.031Z,33.20
2023-05-23T06:23:37.294Z,32.30
2023-05-23T06:26:10.836Z,32.73
2023-05-23T06:28:40.355Z,33.37
2023-05-23T06:31:10.247Z,34.33
2023-05-23T06:33:38.588Z,34.93
2023-05-23T06:36:07.092Z,32.80
2023-05-23T06:38:35.264Z,33.80
2023-05-23T06:41:04.479Z,34.20
2023-05-23T06:43:35.297Z,36.00
2023-05-23T06:46:18.247Z,36.33
2023-05-23T06:48:46.684Z,34.83
2023-05-23T06:51:15.419Z,36.30
2023-05-23T06:53:44.391Z,34.93
2023-05-23T06:56:13.313Z,36.17
2023-05-23T06:58:53.785Z,36.73
2023-05-23T07:01:23.088Z,38.47
2023-05-23T07:03:52.644Z,40.80
2023-05-23T07:06:20.854Z,39.70
2023-05-23T07:08:49.089Z,38.77
2023-05-23T07:11:18.064Z,39.27
2023-05-23T07:13:54.075Z,38.27
2023-05-23T07:16:32.856Z,36.80
2023-05-23T07:19:07.502Z,38.00
2023-05-23T07:21:41.112Z,37.43
2023-05-23T07:24:09.928Z,39.53
2023-05-23T07:26:39.157Z,37.40
2023-05-23T07:29:09.111Z,37.17
2023-05-23T07:31:38.376Z,37.37
2023-05-23T07:34:07.227Z,37.97
2023-05-23T07:36:43.848Z,40.27
2023-05-23T07:39:14.796Z,37.17
2023-05-23T07:41:43.115Z,37.97
2023-05-23T07:44:12.764Z,37.33
2023-05-23T07:46:41.503Z,38.37
2023-05-23T07:49:10.526Z,38.03
2023-05-23T07:51:39.986Z,38.87
2023-05-23T07:54:08.642Z,40.10
2023-05-23T07:56:40.439Z,36.97
2023-05-23T07:59:09.512Z,35.30
2023-05-23T08:01:40.638Z,35.70
2023-05-23T08:04:09.489Z,31.37
2023-05-23T08:07:03.561Z,32.10
2023-05-23T08:09:53.877Z,32.80
2023-05-23T08:12:23.082Z,30.10
2023-05-23T08:14:59.889Z,29.30
2023-05-23T08:17:36.192Z,21.83
2023-05-23T08:20:06.003Z,21.80
2023-05-23T08:22:34.367Z,21.60
2023-05-23T08:25:03.254Z,20.77
2023-05-23T08:27:33.911Z,21.97
2023-05-23T08:30:09.875Z,20.97
2023-05-23T08:32:40.546Z,20.30
2023-05-23T08:35:09.628Z,21.57
2023-05-23T08:37:39.030Z,20.87
2023-05-23T08:40:14.149Z,21.80
2023-05-23T08:42:49.851Z,22.03
2023-05-23T08:45:19.360Z,22.73
2023-05-23T08:47:50.109Z,20.17
2023-05-23T08:50:22.844Z,22.70
2023-05-23T08:52:59.275Z,22.47
2023-05-23T08:55:30.411Z,25.37
2023-05-23T08:58:01.278Z,23.40
2023-05-23T09:00:51.383Z,25.47
2023-05-23T09:03:22.315Z,26.33
2023-05-23T09:06:10.190Z,28.07
2023-05-23T09:08:40.235Z,27.00
2023-05-23T09:11:13.095Z,25.37
2023-05-23T09:13:41.990Z,27.10
2023-05-23T09:16:12.941Z,26.67
2023-05-23T09:18:48.161Z,26.17
2023-05-23T09:21:18.287Z,24.20
2023-05-23T09:23:57.004Z,26.20
2023-05-23T09:26:28.102Z,24.97
2023-05-23T09:28:59.603Z,21.57
2023-05-23T09:31:29.506Z,23.20
2023-05-23T09:34:01.114Z,20.93
2023-05-23T09:36:33.821Z,21.93
2023-05-23T09:39:06.185Z,18.67
2023-05-23T09:41:35.469Z,20.77
2023-05-23T09:44:08.261Z,20.57
2023-05-23T09:46:38.546Z,19.37
2023-05-23T09:49:19.020Z,19.57
2023-05-23T09:51:59.463Z,19.83
2023-05-23T09:54:28.115Z,19.33
2023-05-23T09:56:57.738Z,18.97
2023-05-23T09:59:31.047Z,18.17
2023-05-23T10:02:01.914Z,17.30
2023-05-23T10:04:35.463Z,17.33
2023-05-23T10:07:16.239Z,17.13
2023-05-23T10:09:49.569Z,17.27
2023-05-23T10:12:42.603Z,15.57
2023-05-23T10:15:12.769Z,16.50
2023-05-23T10:18:02.154Z,15.73
2023-05-23T10:20:34.128Z,15.90
2023-05-23T10:23:05.311Z,16.53
2023-05-23T10:25:35.948Z,16.00
2023-05-23T10:28:05.197Z,15.00
2023-05-23T10:30:33.933Z,15.90
2023-05-23T10:33:03.318Z,16.20
2023-05-23T10:35:45.779Z,14.23
2023-05-23T10:38:28.332Z,16.43
2023-05-23T10:41:02.757Z,16.17
2023-05-23T10:43:35.833Z,15.20
2023-05-23T10:46:04.199Z,14.60
2023-05-23T10:48:42.305Z,14.90
2023-05-23T10:51:14.599Z,14.77
2023-05-23T10:53:45.990Z,13.97
2023-05-23T10:56:21.823Z,13.60
2023-05-23T10:58:54.300Z,14.87
2023-05-23T11:01:23.653Z,15.60
2023-05-23T11:03:55.724Z,14.13
2023-05-23T11:06:34.047Z,15.10
2023-05-23T11:09:07.561Z,14.60
2023-05-23T11:12:05.451Z,15.60
2023-05-23T11:14:37.908Z,15.30
2023-05-23T11:17:17.777Z,14.17
2023-05-23T11:20:02.065Z,13.43
2023-05-23T11:22:33.001Z,15.50
2023-05-23T11:25:07.646Z,14.10
2023-05-23T11:27:38.078Z,14.40
2023-05-23T11:30:09.016Z,14.33
2023-05-23T11:32:38.714Z,13.80
2023-05-23T11:35:09.179Z,12.53
2023-05-23T11:37:40.414Z,12.27
2023-05-23T11:40:29.106Z,13.13
2023-05-23T11:42:57.527Z,13.97
2023-05-23T11:45:27.054Z,11.97
2023-05-23T11:47:56.163Z,13.47
2023-05-23T11:50:25.703Z,12.90
2023-05-23T11:52:56.271Z,13.13
2023-05-23T11:55:25.384Z,13.30
2023-05-23T11:57:58.252Z,12.27
2023-05-23T12:00:26.779Z,11.60
2023-05-23T12:02:55.184Z,12.37
2023-05-23T12:05:23.579Z,11.50
2023-05-23T12:07:51.934Z,11.87
2023-05-23T12:10:22.729Z,11.20
2023-05-23T12:12:53.563Z,11.30
2023-05-23T12:15:27.198Z,10.73
2023-05-23T12:17:56.821Z,11.03
2023-05-23T12:20:28.824Z,10.27
2023-05-23T12:22:58.802Z,12.17
2023-05-23T12:25:28.794Z,10.80
2023-05-23T12:27:58.205Z,10.73
2023-05-23T12:30:26.457Z,11.50
2023-05-23T12:32:54.955Z,9.33
2023-05-23T12:35:27.522Z,10.20
2023-05-23T12:37:58.869Z,9.83
2023-05-23T12:40:28.663Z,10.53
2023-05-23T12:42:58.127Z,9.10
2023-05-23T12:45:34.091Z,9.43
2023-05-23T12:48:03.207Z,10.33
2023-05-23T12:50:32.074Z,9.60
2023-05-23T12:53:00.914Z,9.40
2023-05-23T12:55:30.565Z,9.43
2023-05-23T12:57:58.914Z,8.63
2023-05-23T13:00:27.342Z,9.70
2023-05-23T13:02:55.692Z,8.70
2023-05-23T13:05:24.704Z,8.13
2023-05-23T13:07:53.040Z,8.37
2023-05-23T13:10:21.498Z,7.03
2023-05-23T13:12:51.078Z,8.37
2023-05-23T13:15:19.510Z,8.27
2023-05-23T13:17:50.214Z,8.37
2023-05-23T13:20:19.021Z,8.17
2023-05-23T13:22:47.314Z,7.30
2023-05-23T13:25:16.121Z,6.97
2023-05-23T13:27:45.573Z,6.93
2023-05-23T13:30:16.910Z,6.43
2023-05-23T13:32:45.518Z,7.17
2023-05-23T13:35:13.972Z,6.50
2023-05-23T13:37:42.252Z,7.17
2023-05-23T13:40:15.056Z,6.10
2023-05-23T13:42:43.412Z,6.50
2023-05-23T13:45:12.214Z,6.47
2023-05-23T13:47:41.932Z,6.33
2023-05-23T13:50:11.381Z,6.20
2023-05-23T13:52:42.949Z,6.70
2023-05-23T13:55:12.867Z,5.70
2023-05-23T13:57:41.219Z,6.70
2023-05-23T14:00:10.618Z,5.50
2023-05-23T14:02:39.047Z,5.97
2023-05-23T14:05:11.115Z,5.63
2023-05-23T14:07:39.528Z,5.30
2023-05-23T14:10:09.467Z,5.23
2023-05-23T14:12:37.889Z,6.00
2023-05-23T14:15:06.757Z,5.23
2023-05-23T14:17:34.975Z,5.43
2023-05-23T14:20:03.687Z,5.70
2023-05-23T14:22:33.442Z,5.40
2023-05-23T14:25:01.964Z,6.10
2023-05-23T14:27:30.285Z,5.47
2023-05-23T14:29:58.776Z,5.53
2023-05-23T14:32:27.063Z,5.60
2023-05-23T14:34:55.555Z,5.43
2023-05-23T14:37:24.319Z,5.07
2023-05-23T14:39:54.654Z,5.10
2023-05-23T14:42:23.312Z,4.70
2023-05-23T14:44:51.543Z,4.80
2023-05-23T14:47:20.526Z,4.20
2023-05-23T14:49:49.041Z,3.60
2023-05-23T14:52:18.698Z,4.20
2023-05-23T14:54:47.147Z,4.20
2023-05-23T14:57:16.758Z,4.37
2023-05-23T14:59:45.041Z,4.00
2023-05-23T15:02:13.386Z,3.70
2023-05-23T15:04:42.155Z,3.93
2023-05-23T15:07:10.404Z,4.03
2023-05-23T15:09:38.946Z,3.40
2023-05-23T15:12:09.841Z,3.60
2023-05-23T15:14:39.850Z,4.10
2023-05-23T15:17:08.943Z,4.60
2023-05-23T15:19:37.913Z,3.40
2023-05-23T15:22:06.637Z,3.67
2023-05-23T15:24:35.134Z,3.60
2023-05-23T15:27:18.770Z,3.70
2023-05-23T15:29:49.857Z,3.70
2023-05-23T15:32:18.007Z,3.63
2023-05-23T15:34:46.242Z,3.70
2023-05-23T15:37:14.398Z,3.27
2023-05-23T15:39:42.931Z,3.80
2023-05-23T15:42:11.422Z,3.97
2023-05-23T15:44:39.925Z,3.87
2023-05-23T15:47:10.189Z,3.90
2023-05-23T15:49:38.553Z,3.30
2023-05-23T15:52:06.927Z,4.07
2023-05-23T15:54:35.137Z,3.80
2023-05-23T15:57:03.410Z,3.90
2023-05-23T15:59:31.822Z,3.53
2023-05-23T16:02:00.294Z,3.40
2023-05-23T16:04:30.161Z,3.67
2023-05-23T16:06:58.342Z,3.60
2023-05-23T16:09:26.968Z,3.53
2023-05-23T16:11:55.541Z,3.20
2023-05-23T16:14:23.898Z,3.57
2023-05-23T16:16:52.146Z,3.87
2023-05-23T16:19:20.503Z,3.70
2023-05-23T16:21:50.484Z,3.63
2023-05-23T16:24:19.493Z,4.20
2023-05-23T16:26:47.656Z,3.87
2023-05-23T16:29:15.917Z,4.27
2023-05-23T16:31:44.338Z,4.37
2023-05-23T16:34:12.700Z,4.30
2023-05-23T16:36:41.101Z,4.40
2023-05-23T16:39:10.789Z,5.20
2023-05-23T16:41:39.052Z,5.27
2023-05-23T16:44:07.353Z,4.20
2023-05-23T16:46:35.565Z,4.70
2023-05-23T16:49:03.781Z,4.43
2023-05-23T16:51:32.378Z,4.60
2023-05-23T16:54:01.100Z,4.97
2023-05-23T16:56:31.204Z,4.10
2023-05-23T16:58:59.394Z,4.53
2023-05-23T17:01:27.714Z,4.23
2023-05-23T17:03:57.035Z,4.30
2023-05-23T17:06:25.317Z,4.93
2023-05-23T17:08:53.512Z,4.83
2023-05-23T17:11:21.739Z,4.57
2023-05-23T17:13:52.132Z,4.10
2023-05-23T17:16:21.087Z,5.43
2023-05-23T17:18:49.583Z,4.77
2023-05-23T17:21:17.847Z,5.47
2023-05-23T17:23:46.001Z,5.50
2023-05-23T17:26:14.320Z,6.20
2023-05-23T17:28:42.417Z,7.07
2023-05-23T17:31:12.100Z,6.67
2023-05-23T17:33:41.459Z,6.37
2023-05-23T17:36:09.778Z,6.27
2023-05-23T17:38:38.673Z,6.33
2023-05-23T17:41:06.870Z,6.00
2023-05-23T17:43:35.034Z,6.83
2023-05-23T17:46:03.219Z,6.30
2023-05-23T17:48:46.406Z,6.07
2023-05-23T17:51:16.830Z,6.87
2023-05-23T17:53:45.011Z,7.00
2023-05-23T17:56:13.240Z,6.93
2023-05-23T17:58:43.918Z,6.73
2023-05-23T18:01:13.682Z,6.60
2023-05-23T18:03:43.663Z,7.10
2023-05-23T18:06:11.961Z,7.40
2023-05-23T18:08:40.092Z,7.30
2023-05-23T18:11:08.260Z,7.40
2023-05-23T18:13:36.520Z,8.10
2023-05-23T18:16:04.917Z,7.93
2023-05-23T18:18:33.556Z,7.97
2023-05-23T18:21:03.744Z,7.20
2023-05-23T18:23:32.221Z,8.10
2023-05-23T18:26:00.657Z,7.70
2023-05-23T18:28:28.813Z,7.20
2023-05-23T18:30:57.522Z,7.77
2023-05-23T18:33:28.016Z,7.73
2023-05-23T18:35:56.532Z,7.60
2023-05-23T18:38:26.258Z,8.80
2023-05-23T18:40:54.462Z,8.30
2023-05-23T18:43:23.826Z,8.33
2023-05-23T18:45:52.005Z,8.33
2023-05-23T18:48:20.654Z,7.83
2023-05-23T18:50:48.868Z,7.60
2023-05-23T18:53:17.026Z,7.67
2023-05-23T18:55:46.548Z,8.53
2023-05-23T18:58:14.799Z,9.50
2023-05-23T19:00:44.323Z,8.47
2023-05-23T19:03:12.697Z,8.60
2023-05-23T19:05:41.172Z,8.00
2023-05-23T19:08:09.804Z,8.47
2023-05-23T19:10:37.943Z,9.13
2023-05-23T19:13:08.056Z,8.00
2023-05-23T19:15:36.186Z,7.77
2023-05-23T19:18:04.713Z,8.20
2023-05-23T19:20:32.913Z,9.10
2023-05-23T19:23:01.313Z,7.60
2023-05-23T19:25:29.514Z,8.60
2023-05-23T19:27:57.750Z,8.70
2023-05-23T19:30:27.316Z,8.50
2023-05-23T19:32:55.519Z,9.17
2023-05-23T19:35:23.978Z,9.00
2023-05-23T19:37:52.339Z,9.43
2023-05-23T19:40:21.737Z,9.23
2023-05-23T19:42:50.280Z,9.63
2023-05-23T19:45:19.206Z,8.77
2023-05-23T19:47:49.020Z,10.10
2023-05-23T19:50:17.304Z,11.50
2023-05-23T19:52:45.558Z,11.20
2023-05-23T19:55:14.620Z,11.23
2023-05-23T19:57:42.860Z,11.00
2023-05-23T20:00:14.762Z,12.07
2023-05-23T20:02:44.611Z,11.77
2023-05-23T20:05:14.795Z,12.30
2023-05-23T20:07:43.243Z,12.33
2023-05-23T20:10:12.070Z,13.07
2023-05-23T20:12:40.340Z,13.17
2023-05-23T20:15:09.775Z,14.00
2023-05-23T20:17:38.130Z,14.23
2023-05-23T20:20:07.599Z,14.13
2023-05-23T20:22:37.754Z,13.87
2023-05-23T20:25:07.059Z,13.93
2023-05-23T20:27:35.347Z,14.50
2023-05-23T20:30:04.091Z,16.50
2023-05-23T20:32:32.426Z,14.43
2023-05-23T20:35:01.068Z,12.30
2023-05-23T20:37:29.433Z,14.57
2023-05-23T20:40:00.635Z,14.40
2023-05-23T20:42:31.125Z,14.53
2023-05-23T20:44:59.588Z,14.33
2023-05-23T20:47:28.338Z,12.23
2023-05-23T20:49:58.374Z,13.43
2023-05-23T20:52:27.223Z,12.70
2023-05-23T20:54:55.898Z,13.30
2023-05-23T20:57:25.854Z,12.10
2023-05-23T20:59:54.476Z,15.13
2023-05-23T21:02:22.886Z,12.67
2023-05-23T21:04:51.704Z,13.20
2023-05-23T21:07:20.316Z,12.60
2023-05-23T21:09:48.633Z,11.17
2023-05-23T21:12:16.893Z,10.23
2023-05-23T21:14:46.554Z,11.90
2023-05-23T21:17:16.026Z,11.10
2023-05-23T21:19:44.425Z,10.73
2023-05-23T21:22:12.725Z,10.10
2023-05-23T21:24:41.316Z,8.27
2023-05-23T21:27:09.877Z,8.80
2023-05-23T21:29:38.171Z,9.70
2023-05-23T21:32:08.432Z,9.27
2023-05-23T21:34:36.708Z,9.20
2023-05-23T21:37:05.503Z,8.97
2023-05-23T21:39:47.103Z,8.00
2023-05-23T21:42:19.113Z,9.13
2023-05-23T21:44:47.346Z,7.67
2023-05-23T21:47:17.182Z,8.20
2023-05-23T21:49:45.558Z,8.20
2023-05-23T21:52:13.812Z,8.43
2023-05-23T21:54:42.528Z,8.50
2023-05-23T21:57:10.935Z,8.67
2023-05-23T21:59:39.516Z,8.13
2023-05-23T22:02:07.807Z,8.20
2023-05-23T22:04:37.495Z,7.33
2023-05-23T22:07:06.083Z,6.90
2023-05-23T22:09:34.266Z,7.07
2023-05-23T22:12:02.772Z,7.33
2023-05-23T22:14:30.940Z,7.40
2023-05-23T22:17:02.204Z,7.97
2023-05-23T22:19:30.528Z,6.80
2023-05-23T22:22:00.331Z,6.80
2023-05-23T22:24:29.253Z,7.60
2023-05-23T22:26:58.384Z,7.80
2023-05-23T22:29:26.582Z,7.57
2023-05-23T22:31:54.951Z,7.90
2023-05-23T22:34:23.200Z,7.70
2023-05-23T22:36:52.201Z,6.90
2023-05-23T22:39:21.781Z,7.27
2023-05-23T22:41:50.100Z,7.13
2023-05-23T22:44:18.427Z,6.90
2023-05-23T22:46:46.758Z,7.80
2023-05-23T22:49:15.507Z,6.53
2023-05-23T22:51:44.765Z,6.63
2023-05-23T22:54:12.937Z,6.80
2023-05-23T22:56:42.556Z,6.77
2023-05-23T22:59:10.719Z,7.33
2023-05-23T23:01:39.167Z,7.27
2023-05-23T23:04:07.305Z,6.10
2023-05-23T23:06:35.714Z,6.63
2023-05-23T23:09:05.081Z,6.47
2023-05-23T23:11:33.429Z,7.07
2023-05-23T23:14:03.247Z,7.43
2023-05-23T23:16:32.128Z,6.13
2023-05-23T23:19:00.375Z,6.07
2023-05-23T23:21:28.589Z,6.27
2023-05-23T23:23:56.952Z,6.73
2023-05-23T23:26:26.141Z,5.63
2023-05-23T23:28:54.312Z,6.30
2023-05-23T23:31:23.996Z,7.13
2023-05-23T23:33:52.293Z,6.33
2023-05-23T23:36:20.499Z,6.43
2023-05-23T23:38:48.874Z,6.63
2023-05-23T23:41:17.124Z,5.97
2023-05-23T23:43:45.417Z,5.63
2023-05-23T23:46:13.896Z,7.63
2023-05-23T23:48:43.495Z,6.60
2023-05-23T23:51:12.989Z,6.83
2023-05-23T23:53:41.448Z,6.17
2023-05-23T23:56:09.626Z,5.53
2023-05-23T23:58:37.949Z,5.77
